createdAt,value
2022-08-31T00:03:57.392Z,55.23
2022-08-31T00:08:56.650Z,55.51
2022-08-31T00:13:56.029Z,55.82
2022-08-31T00:18:54.631Z,55.39
2022-08-31T00:23:53.189Z,55.82
2022-08-31T00:28:53.318Z,56.71
2022-08-31T00:33:52.713Z,57.65
2022-08-31T00:38:52.024Z,58.60
2022-08-31T00:43:54.417Z,59.15
2022-08-31T00:48:59.606Z,59.61
2022-08-31T00:53:58.371Z,59.78
2022-08-31T00:58:58.162Z,59.23
2022-08-31T01:03:56.328Z,58.61
2022-08-31T01:08:56.898Z,58.73
2022-08-31T01:13:55.557Z,58.46
2022-08-31T01:18:58.265Z,58.10
2022-08-31T01:24:01.227Z,58.65
2022-08-31T01:29:04.988Z,58.37
2022-08-31T01:34:03.254Z,58.60
2022-08-31T01:39:03.034Z,58.64
2022-08-31T01:44:01.161Z,58.80
2022-08-31T01:49:00.877Z,59.19
2022-08-31T01:53:59.025Z,58.96
2022-08-31T01:58:59.234Z,59.11
2022-08-31T02:04:04.215Z,59.76
2022-08-31T02:09:03.592Z,59.57
2022-08-31T02:14:03.325Z,60.10
2022-08-31T02:19:01.659Z,60.14
2022-08-31T02:23:59.982Z,59.97
2022-08-31T02:28:58.073Z,59.89
2022-08-31T02:33:57.662Z,60.05
2022-08-31T02:38:55.954Z,59.43
2022-08-31T02:43:54.269Z,59.94
2022-08-31T02:48:53.001Z,60.14
2022-08-31T02:53:54.007Z,60.27
2022-08-31T02:58:55.186Z,60.67
2022-08-31T03:03:55.191Z,61.28
2022-08-31T03:08:55.131Z,61.69
2022-08-31T03:13:58.484Z,62.74
2022-08-31T03:18:57.077Z,63.23
2022-08-31T03:23:56.652Z,63.91
2022-08-31T03:28:55.979Z,63.65
2022-08-31T03:34:15.958Z,64.40
2022-08-31T03:39:16.072Z,64.33
2022-08-31T03:44:14.698Z,65.37
2022-08-31T03:49:18.485Z,64.74
2022-08-31T03:54:33.070Z,64.26
2022-08-31T03:59:31.227Z,64.09
2022-08-31T04:05:01.826Z,64.82
2022-08-31T04:10:24.329Z,64.91
2022-08-31T04:15:41.191Z,65.57
2022-08-31T04:20:57.849Z,65.26
2022-08-31T04:25:58.441Z,65.41
2022-08-31T04:30:57.335Z,65.73
2022-08-31T04:35:55.480Z,65.80
2022-08-31T04:40:53.771Z,65.44
2022-08-31T04:45:53.381Z,65.36
2022-08-31T04:50:52.706Z,64.93
2022-08-31T04:55:50.796Z,65.38
2022-08-31T05:00:49.769Z,64.63
2022-08-31T05:06:17.046Z,64.75
2022-08-31T05:11:19.030Z,64.59
2022-08-31T05:16:22.488Z,65.61
2022-08-31T05:21:28.323Z,66.00
2022-08-31T05:26:28.311Z,65.70
2022-08-31T05:31:30.127Z,65.26
2022-08-31T05:36:31.694Z,65.57
2022-08-31T05:41:31.088Z,65.58
2022-08-31T05:46:30.218Z,64.57
2022-08-31T05:51:28.904Z,64.23
2022-08-31T05:56:29.415Z,62.63
2022-08-31T06:01:31.323Z,63.45
2022-08-31T06:06:45.758Z,61.45
2022-08-31T06:11:48.034Z,61.01
2022-08-31T06:16:48.234Z,59.13
2022-08-31T06:21:51.028Z,58.64
2022-08-31T06:27:10.319Z,57.39
2022-08-31T06:32:11.070Z,54.25
2022-08-31T06:37:19.067Z,51.15
2022-08-31T06:42:41.753Z,49.55
2022-08-31T06:48:01.323Z,46.69
2022-08-31T06:52:59.811Z,45.29
2022-08-31T06:58:35.123Z,43.84
2022-08-31T07:03:58.169Z,43.61
2022-08-31T07:08:58.948Z,42.94
2022-08-31T07:13:59.843Z,42.53
2022-08-31T07:19:01.776Z,41.66
2022-08-31T07:24:02.596Z,41.05
2022-08-31T07:29:05.172Z,39.97
2022-08-31T07:34:08.249Z,39.97
2022-08-31T07:39:32.378Z,39.04
2022-08-31T07:44:34.636Z,38.37
2022-08-31T07:49:35.502Z,37.75
2022-08-31T07:54:39.961Z,36.14
2022-08-31T08:00:10.474Z,35.69
2022-08-31T08:05:21.171Z,34.90
2022-08-31T08:10:52.577Z,34.69
2022-08-31T08:16:15.426Z,34.28
2022-08-31T08:21:22.702Z,34.49
2022-08-31T08:26:22.404Z,33.28
2022-08-31T08:31:40.915Z,32.65
2022-08-31T08:36:40.754Z,32.28
2022-08-31T08:41:42.961Z,32.39
2022-08-31T08:46:48.095Z,31.59
2022-08-31T08:51:50.222Z,31.87
2022-08-31T08:56:49.783Z,31.57
2022-08-31T09:01:56.425Z,31.05
2022-08-31T09:07:12.029Z,30.39
2022-08-31T09:12:26.356Z,29.09
2022-08-31T09:17:41.401Z,28.29
2022-08-31T09:22:47.167Z,28.35
2022-08-31T09:27:57.575Z,27.34
2022-08-31T09:32:58.905Z,26.38
2022-08-31T09:38:02.511Z,25.61
2022-08-31T09:43:07.100Z,26.68
2022-08-31T09:48:09.169Z,26.25
2022-08-31T09:53:31.417Z,25.84
2022-08-31T09:58:31.028Z,26.28
2022-08-31T10:03:31.789Z,25.30
2022-08-31T10:08:42.283Z,25.23
2022-08-31T10:13:43.390Z,23.48
2022-08-31T10:18:56.216Z,23.90
2022-08-31T10:24:03.277Z,23.55
2022-08-31T10:29:06.081Z,24.22
2022-08-31T10:34:29.154Z,23.24
2022-08-31T10:39:34.147Z,23.35
2022-08-31T10:44:42.341Z,22.57
2022-08-31T10:49:57.780Z,22.77
2022-08-31T10:55:06.744Z,24.28
2022-08-31T11:00:08.995Z,24.08
2022-08-31T11:05:23.033Z,23.30
2022-08-31T11:10:33.337Z,22.85
2022-08-31T11:15:57.156Z,23.43
2022-08-31T11:21:17.354Z,24.05
2022-08-31T11:26:52.879Z,23.46
2022-08-31T11:31:55.205Z,23.21
2022-08-31T11:36:56.769Z,23.66
2022-08-31T11:41:55.734Z,22.56
2022-08-31T11:47:06.986Z,22.38
2022-08-31T11:52:10.522Z,22.92
2022-08-31T11:57:11.305Z,23.11
2022-08-31T12:02:44.433Z,22.83
2022-08-31T12:07:48.387Z,22.50
2022-08-31T12:13:18.903Z,22.58
2022-08-31T12:18:31.121Z,21.62
2022-08-31T12:23:40.041Z,21.11
2022-08-31T12:28:56.286Z,21.72
2022-08-31T12:34:00.848Z,21.44
2022-08-31T12:39:10.199Z,21.98
2022-08-31T12:44:14.274Z,21.80
2022-08-31T12:49:31.496Z,22.33
2022-08-31T12:54:58.528Z,22.45
2022-08-31T13:00:04.495Z,24.01
2022-08-31T13:05:03.513Z,22.90
2022-08-31T13:10:11.656Z,22.97
2022-08-31T13:15:13.586Z,23.04
2022-08-31T13:20:19.820Z,22.92
2022-08-31T13:25:35.930Z,22.64
2022-08-31T13:30:39.739Z,22.09
2022-08-31T13:35:39.719Z,22.31
2022-08-31T13:40:42.117Z,22.48
2022-08-31T13:45:53.181Z,22.39
2022-08-31T13:50:59.298Z,23.65
2022-08-31T13:55:59.028Z,23.34
2022-08-31T14:01:19.181Z,24.20
2022-08-31T14:06:24.181Z,25.33
2022-08-31T14:11:28.527Z,24.78
2022-08-31T14:16:35.770Z,26.28
2022-08-31T14:21:36.040Z,26.13
2022-08-31T14:26:41.617Z,26.14
2022-08-31T14:31:45.059Z,26.51
2022-08-31T14:36:50.445Z,26.25
2022-08-31T14:41:50.345Z,26.41
2022-08-31T14:46:48.594Z,26.55
2022-08-31T14:51:47.349Z,26.84
2022-08-31T14:56:54.569Z,28.46
2022-08-31T15:01:57.931Z,27.59
2022-08-31T15:07:09.911Z,28.69
2022-08-31T15:12:14.716Z,29.38
2022-08-31T15:17:19.962Z,29.00
2022-08-31T15:22:19.065Z,28.94
2022-08-31T15:27:18.989Z,29.51
2022-08-31T15:32:18.653Z,30.24
2022-08-31T15:37:17.899Z,29.98
2022-08-31T15:42:20.888Z,30.72
2022-08-31T15:47:36.798Z,30.98
2022-08-31T15:52:36.929Z,31.00
2022-08-31T15:57:36.883Z,30.80
2022-08-31T16:02:36.201Z,31.29
2022-08-31T16:07:35.160Z,31.19
2022-08-31T16:12:35.095Z,31.34
2022-08-31T16:17:34.726Z,31.85
2022-08-31T16:22:33.101Z,32.11
2022-08-31T16:27:31.334Z,32.59
2022-08-31T16:32:30.458Z,32.87
2022-08-31T16:37:30.137Z,33.76
2022-08-31T16:42:28.610Z,34.05
2022-08-31T16:47:26.885Z,33.99
2022-08-31T16:52:27.428Z,34.82
2022-08-31T16:57:28.823Z,34.77
2022-08-31T17:02:28.115Z,36.01
2022-08-31T17:07:26.437Z,36.67
2022-08-31T17:12:27.405Z,36.93
2022-08-31T17:17:27.789Z,37.28
2022-08-31T17:22:32.423Z,37.90
2022-08-31T17:27:35.145Z,38.63
2022-08-31T17:32:34.982Z,38.89
2022-08-31T17:37:36.520Z,39.01
2022-08-31T17:42:36.764Z,39.11
2022-08-31T17:47:36.124Z,39.05
2022-08-31T17:52:34.932Z,38.81
2022-08-31T17:57:33.391Z,38.65
2022-08-31T18:02:35.061Z,38.98
2022-08-31T18:07:33.342Z,38.83
2022-08-31T18:12:31.546Z,38.81
2022-08-31T18:17:30.194Z,39.09
2022-08-31T18:22:30.279Z,39.54
2022-08-31T18:27:29.325Z,39.73
2022-08-31T18:32:36.276Z,39.84
2022-08-31T18:37:36.034Z,40.08
2022-08-31T18:42:51.778Z,40.50
2022-08-31T18:53:29.030Z,40.73
2022-08-31T18:58:28.891Z,40.95
2022-08-31T19:03:28.374Z,41.58
2022-08-31T19:08:28.475Z,42.28
2022-08-31T19:13:30.458Z,41.76
2022-08-31T19:18:28.702Z,42.40
2022-08-31T19:23:28.538Z,42.73
2022-08-31T19:28:26.861Z,41.89
2022-08-31T19:33:26.184Z,42.07
2022-08-31T19:38:24.942Z,42.90
2022-08-31T19:48:44.353Z,43.83
2022-08-31T19:53:45.124Z,43.72
2022-08-31T19:58:47.099Z,44.54
2022-08-31T20:03:46.040Z,45.08
2022-08-31T20:08:45.911Z,45.95
2022-08-31T20:13:45.564Z,46.56
2022-08-31T20:18:47.029Z,47.06
2022-08-31T20:23:47.865Z,47.53
2022-08-31T20:28:47.479Z,48.31
2022-08-31T20:33:46.994Z,48.56
2022-08-31T20:38:45.199Z,50.02
2022-08-31T20:43:46.096Z,50.58
2022-08-31T20:49:03.258Z,49.56
2022-08-31T20:54:01.479Z,49.47
2022-08-31T20:59:00.265Z,50.16
2022-08-31T21:03:59.795Z,50.56
2022-08-31T21:08:57.905Z,50.95
2022-08-31T21:13:56.910Z,51.41
2022-08-31T21:18:55.074Z,52.73
2022-08-31T21:23:54.597Z,54.06
2022-08-31T21:28:54.290Z,54.07
2022-08-31T21:33:54.262Z,55.65
2022-08-31T21:38:55.022Z,57.31
2022-08-31T21:43:53.246Z,57.84
2022-08-31T21:48:54.030Z,57.26
2022-08-31T21:53:55.702Z,58.65
2022-08-31T21:58:54.035Z,59.19
2022-08-31T22:03:56.194Z,59.71
2022-08-31T22:09:00.596Z,59.69
2022-08-31T22:13:59.945Z,60.09
2022-08-31T22:19:01.296Z,59.43
2022-08-31T22:24:04.804Z,60.06
2022-08-31T22:29:03.234Z,60.46
2022-08-31T22:34:01.627Z,60.67
2022-08-31T22:39:03.515Z,60.34
2022-08-31T22:44:02.227Z,60.46
2022-08-31T22:49:01.051Z,59.13
2022-08-31T22:53:59.803Z,59.31
2022-08-31T22:59:02.636Z,58.19
2022-08-31T23:04:06.938Z,57.40
2022-08-31T23:09:07.904Z,56.85
2022-08-31T23:14:10.477Z,56.01
2022-08-31T23:19:12.572Z,56.30
2022-08-31T23:24:12.896Z,55.12
2022-08-31T23:29:13.691Z,55.76
2022-08-31T23:34:13.207Z,55.65
2022-08-31T23:39:11.620Z,54.92
2022-08-31T23:44:13.325Z,55.31
2022-08-31T23:49:15.484Z,56.08
2022-08-31T23:54:16.552Z,55.78
2022-08-31T23:59:19.172Z,56.00
